sensor_id;sensor_type;location;lat;lon;timestamp;pressure;altitude;pressure_sealevel;temperature;humidity
42859;BME280;28505;56.970;40.998;2023-12-14T00:01:57;101119.47;;;-14.54;100.00
42859;BME280;28505;56.970;40.998;2023-12-14T00:07:19;101119.94;;;-14.49;100.00
42859;BME280;28505;56.970;40.998;2023-12-14T00:12:41;101121.84;;;-14.51;100.00
42859;BME280;28505;56.970;40.998;2023-12-14T00:18:03;101131.84;;;-14.47;100.00
42859;BME280;28505;56.970;40.998;2023-12-14T00:23:26;101139.31;;;-14.42;100.00
42859;BME280;28505;56.970;40.998;2023-12-14T00:28:48;101127.91;;;-14.40;100.00
42859;BME280;28505;56.970;40.998;2023-12-14T00:34:10;101118.59;;;-14.42;100.00
42859;BME280;28505;56.970;40.998;2023-12-14T00:39:33;101135.19;;;-14.32;100.00
42859;BME280;28505;56.970;40.998;2023-12-14T00:44:55;101120.75;;;-14.36;100.00
42859;BME280;28505;56.970;40.998;2023-12-14T00:50:17;101110.72;;;-14.28;100.00
42859;BME280;28505;56.970;40.998;2023-12-14T00:55:40;101112.28;;;-14.25;100.00
42859;BME280;28505;56.970;40.998;2023-12-14T01:01:02;101107.59;;;-14.33;100.00
42859;BME280;28505;56.970;40.998;2023-12-14T01:06:24;101094.16;;;-14.38;100.00
42859;BME280;28505;56.970;40.998;2023-12-14T01:11:46;101101.41;;;-14.30;100.00
42859;BME280;28505;56.970;40.998;2023-12-14T01:17:08;101096.53;;;-14.35;100.00
42859;BME280;28505;56.970;40.998;2023-12-14T01:22:33;101110.59;;;-14.26;100.00
42859;BME280;28505;56.970;40.998;2023-12-14T01:27:56;101095.19;;;-14.28;100.00
42859;BME280;28505;56.970;40.998;2023-12-14T01:33:18;101106.69;;;-14.32;100.00
42859;BME280;28505;56.970;40.998;2023-12-14T01:38:41;101101.72;;;-14.35;100.00
42859;BME280;28505;56.970;40.998;2023-12-14T01:44:03;101100.03;;;-14.36;100.00
42859;BME280;28505;56.970;40.998;2023-12-14T01:49:26;101097.88;;;-14.42;100.00
42859;BME280;28505;56.970;40.998;2023-12-14T01:54:48;101104.31;;;-14.35;100.00
42859;BME280;28505;56.970;40.998;2023-12-14T02:00:25;101099.22;;;-14.36;100.00
42859;BME280;28505;56.970;40.998;2023-12-14T02:05:50;101107.00;;;-14.24;100.00
42859;BME280;28505;56.970;40.998;2023-12-14T02:11:12;101103.88;;;-14.29;100.00
42859;BME280;28505;56.970;40.998;2023-12-14T02:16:34;101109.78;;;-14.27;100.00
42859;BME280;28505;56.970;40.998;2023-12-14T02:21:57;101090.00;;;-14.28;100.00
42859;BME280;28505;56.970;40.998;2023-12-14T02:27:19;101105.34;;;-14.25;100.00
42859;BME280;28505;56.970;40.998;2023-12-14T02:32:41;101109.78;;;-14.27;100.00
42859;BME280;28505;56.970;40.998;2023-12-14T02:38:03;101108.97;;;-14.27;100.00
42859;BME280;28505;56.970;40.998;2023-12-14T02:43:26;101103.88;;;-14.29;100.00
42859;BME280;28505;56.970;40.998;2023-12-14T02:48:48;101110.31;;;-14.22;100.00
42859;BME280;28505;56.970;40.998;2023-12-14T02:54:10;101096.41;;;-14.21;100.00
42859;BME280;28505;56.970;40.998;2023-12-14T02:59:32;101079.66;;;-14.28;100.00
42859;BME280;28505;56.970;40.998;2023-12-14T03:05:03;101103.44;;;-14.23;100.00
42859;BME280;28505;56.970;40.998;2023-12-14T03:10:28;101080.03;;;-14.21;100.00
42859;BME280;28505;56.970;40.998;2023-12-14T03:15:50;101086.47;;;-14.14;100.00
42859;BME280;28505;56.970;40.998;2023-12-14T03:21:13;101073.84;;;-14.19;100.00
42859;BME280;28505;56.970;40.998;2023-12-14T03:26:35;101085.72;;;-14.16;100.00
42859;BME280;28505;56.970;40.998;2023-12-14T03:31:57;101085.84;;;-14.18;100.00
42859;BME280;28505;56.970;40.998;2023-12-14T03:37:19;101082.09;;;-14.13;100.00
42859;BME280;28505;56.970;40.998;2023-12-14T03:42:41;101078.56;;;-14.12;100.00
42859;BME280;28505;56.970;40.998;2023-12-14T03:48:04;101078.81;;;-14.16;100.00
42859;BME280;28505;56.970;40.998;2023-12-14T03:53:26;101086.25;;;-14.11;100.00
42859;BME280;28505;56.970;40.998;2023-12-14T03:58:49;101080.53;;;-14.16;100.00
42859;BME280;28505;56.970;40.998;2023-12-14T04:04:11;101084.00;;;-14.16;100.00
42859;BME280;28505;56.970;40.998;2023-12-14T04:09:33;101085.63;;;-14.14;100.00
42859;BME280;28505;56.970;40.998;2023-12-14T04:14:55;101080.66;;;-14.18;100.00
42859;BME280;28505;56.970;40.998;2023-12-14T04:20:17;101088.72;;;-14.09;100.00
42859;BME280;28505;56.970;40.998;2023-12-14T04:25:39;101096.50;;;-14.09;100.00
42859;BME280;28505;56.970;40.998;2023-12-14T04:31:01;101092.25;;;-14.10;100.00
42859;BME280;28505;56.970;40.998;2023-12-14T04:36:24;101079.63;;;-14.15;100.00
42859;BME280;28505;56.970;40.998;2023-12-14T04:41:46;101091.22;;;-14.08;100.00
42859;BME280;28505;56.970;40.998;2023-12-14T04:47:08;101092.97;;;-14.08;100.00
42859;BME280;28505;56.970;40.998;2023-12-14T04:52:30;101092.25;;;-14.10;100.00
42859;BME280;28505;56.970;40.998;2023-12-14T04:57:53;101091.09;;;-14.06;100.00
42859;BME280;28505;56.970;40.998;2023-12-14T05:03:15;101094.84;;;-14.10;100.00
42859;BME280;28505;56.970;40.998;2023-12-14T05:08:37;101099.81;;;-14.07;100.00
42859;BME280;28505;56.970;40.998;2023-12-14T05:13:59;101095.78;;;-14.11;100.00
42859;BME280;28505;56.970;40.998;2023-12-14T05:19:22;101107.59;;;-14.07;100.00
42859;BME280;28505;56.970;40.998;2023-12-14T05:24:47;101101.16;;;-14.02;100.00
42859;BME280;28505;56.970;40.998;2023-12-14T05:30:09;101092.47;;;-14.13;100.00
42859;BME280;28505;56.970;40.998;2023-12-14T05:35:32;101104.06;;;-14.06;100.00
42859;BME280;28505;56.970;40.998;2023-12-14T05:40:56;101111.72;;;-14.05;100.00
42859;BME280;28505;56.970;40.998;2023-12-14T05:46:22;101104.16;;;-14.08;100.00
42859;BME280;28505;56.970;40.998;2023-12-14T05:51:45;101099.72;;;-14.06;100.00
42859;BME280;28505;56.970;40.998;2023-12-14T05:57:07;101099.19;;;-14.11;100.00
42859;BME280;28505;56.970;40.998;2023-12-14T06:02:29;101105.53;;;-14.02;100.00
42859;BME280;28505;56.970;40.998;2023-12-14T06:07:54;101108.00;;;-14.01;100.00
42859;BME280;28505;56.970;40.998;2023-12-14T06:13:16;101111.94;;;-13.95;100.00
42859;BME280;28505;56.970;40.998;2023-12-14T06:18:40;101118.66;;;-13.93;100.00
42859;BME280;28505;56.970;40.998;2023-12-14T06:24:05;101124.56;;;-13.90;100.00
42859;BME280;28505;56.970;40.998;2023-12-14T06:29:28;101123.72;;;-13.91;100.00
42859;BME280;28505;56.970;40.998;2023-12-14T06:34:50;101125.16;;;-13.87;100.00
42859;BME280;28505;56.970;40.998;2023-12-14T06:40:12;101127.75;;;-13.87;100.00
42859;BME280;28505;56.970;40.998;2023-12-14T06:45:37;101134.41;;;-13.83;100.00
42859;BME280;28505;56.970;40.998;2023-12-14T06:50:59;101144.22;;;-13.75;100.00
42859;BME280;28505;56.970;40.998;2023-12-14T06:56:21;101149.63;;;-13.78;100.00
42859;BME280;28505;56.970;40.998;2023-12-14T07:01:44;101144.84;;;-13.72;100.00
42859;BME280;28505;56.970;40.998;2023-12-14T07:07:06;101137.41;;;-13.76;100.00
42859;BME280;28505;56.970;40.998;2023-12-14T07:12:28;101118.72;;;-13.81;100.00
42859;BME280;28505;56.970;40.998;2023-12-14T07:17:50;101128.13;;;-13.68;100.00
42859;BME280;28505;56.970;40.998;2023-12-14T07:23:13;101123.38;;;-13.74;100.00
42859;BME280;28505;56.970;40.998;2023-12-14T07:28:36;101125.63;;;-13.56;100.00
42859;BME280;28505;56.970;40.998;2023-12-14T07:33:58;101131.72;;;-13.57;100.00
42859;BME280;28505;56.970;40.998;2023-12-14T07:39:21;101136.69;;;-13.54;100.00
42859;BME280;28505;56.970;40.998;2023-12-14T07:44:43;101139.72;;;-13.60;100.00
42859;BME280;28505;56.970;40.998;2023-12-14T07:50:06;101143.97;;;-13.47;100.00
42859;BME280;28505;56.970;40.998;2023-12-14T07:55:28;101144.47;;;-13.54;100.00
42859;BME280;28505;56.970;40.998;2023-12-14T08:00:51;101148.28;;;-13.47;100.00
42859;BME280;28505;56.970;40.998;2023-12-14T08:06:16;101147.41;;;-13.35;100.00
42859;BME280;28505;56.970;40.998;2023-12-14T08:11:38;101141.25;;;-13.45;100.00
42859;BME280;28505;56.970;40.998;2023-12-14T08:17:03;101141.53;;;-13.37;100.00
42859;BME280;28505;56.970;40.998;2023-12-14T08:22:26;101142.97;;;-13.22;100.00
42859;BME280;28505;56.970;40.998;2023-12-14T08:27:49;101150.53;;;-13.18;100.00
42859;BME280;28505;56.970;40.998;2023-12-14T08:33:12;101151.06;;;-13.13;100.00
42859;BME280;28505;56.970;40.998;2023-12-14T08:38:34;101141.13;;;-13.19;100.00
42859;BME280;28505;56.970;40.998;2023-12-14T08:43:59;101142.09;;;-13.09;100.00
42859;BME280;28505;56.970;40.998;2023-12-14T08:49:21;101142.09;;;-13.09;100.00
42859;BME280;28505;56.970;40.998;2023-12-14T09:00:41;101139.50;;;-13.09;100.00
42859;BME280;28505;56.970;40.998;2023-12-14T09:06:03;101133.88;;;-13.03;100.00
42859;BME280;28505;56.970;40.998;2023-12-14T09:11:27;101153.84;;;-12.92;100.00
42859;BME280;28505;56.970;40.998;2023-12-14T09:16:50;101151.09;;;-13.02;100.00
42859;BME280;28505;56.970;40.998;2023-12-14T09:22:11;101161.78;;;-12.83;100.00
42859;BME280;28505;56.970;40.998;2023-12-14T09:27:34;101164.97;;;-12.90;100.00
42859;BME280;28505;56.970;40.998;2023-12-14T09:32:56;101159.34;;;-12.73;100.00
42859;BME280;28505;56.970;40.998;2023-12-14T09:38:19;101149.78;;;-12.73;100.00
42859;BME280;28505;56.970;40.998;2023-12-14T09:43:42;101149.22;;;-13.00;100.00
42859;BME280;28505;56.970;40.998;2023-12-14T09:49:05;101146.19;;;-12.94;100.00
42859;BME280;28505;56.970;40.998;2023-12-14T09:54:29;101150.59;;;-12.83;100.00
42859;BME280;28505;56.970;40.998;2023-12-14T09:59:54;101144.38;;;-12.69;100.00
42859;BME280;28505;56.970;40.998;2023-12-14T10:05:17;101147.84;;;-12.82;100.00
42859;BME280;28505;56.970;40.998;2023-12-14T10:10:40;101143.00;;;-12.51;100.00
42859;BME280;28505;56.970;40.998;2023-12-14T10:16:02;101139.53;;;-12.63;100.00
42859;BME280;28505;56.970;40.998;2023-12-14T10:21:28;101128.56;;;-12.66;100.00
42859;BME280;28505;56.970;40.998;2023-12-14T10:26:50;101124.41;;;-12.69;100.00
42859;BME280;28505;56.970;40.998;2023-12-14T10:32:13;101123.81;;;-12.73;100.00
42859;BME280;28505;56.970;40.998;2023-12-14T10:37:37;101115.56;;;-12.78;100.00
42859;BME280;28505;56.970;40.998;2023-12-14T10:43:00;101113.19;;;-12.69;100.00
42859;BME280;28505;56.970;40.998;2023-12-14T10:48:29;101108.28;;;-12.50;100.00
42859;BME280;28505;56.970;40.998;2023-12-14T10:53:53;101124.31;;;-12.56;100.00
42859;BME280;28505;56.970;40.998;2023-12-14T10:59:26;101118.22;;;-12.55;100.00
42859;BME280;28505;56.970;40.998;2023-12-14T11:04:55;101121.97;;;-12.59;100.00
42859;BME280;28505;56.970;40.998;2023-12-14T11:10:24;101116.53;;;-12.67;100.00
42859;BME280;28505;56.970;40.998;2023-12-14T11:15:48;101128.78;;;-12.69;100.00
42859;BME280;28505;56.970;40.998;2023-12-14T11:21:18;101133.53;;;-12.63;100.00
42859;BME280;28505;56.970;40.998;2023-12-14T11:26:41;101130.47;;;-12.68;100.00
42859;BME280;28505;56.970;40.998;2023-12-14T11:32:06;101133.28;;;-12.60;100.00
42859;BME280;28505;56.970;40.998;2023-12-14T11:37:29;101125.13;;;-12.67;100.00
42859;BME280;28505;56.970;40.998;2023-12-14T11:42:59;101121.50;;;-12.64;100.00
42859;BME280;28505;56.970;40.998;2023-12-14T11:48:22;101112.13;;;-12.78;100.00
42859;BME280;28505;56.970;40.998;2023-12-14T11:53:47;101130.19;;;-12.65;100.00
42859;BME280;28505;56.970;40.998;2023-12-14T11:59:12;101124.09;;;-12.64;100.00
42859;BME280;28505;56.970;40.998;2023-12-14T12:04:50;101133.53;;;-12.63;100.00
42859;BME280;28505;56.970;40.998;2023-12-14T12:10:19;101139.75;;;-12.66;100.00
42859;BME280;28505;56.970;40.998;2023-12-14T12:15:46;101149.47;;;-12.68;100.00
42859;BME280;28505;56.970;40.998;2023-12-14T12:21:11;101164.22;;;-12.68;100.00
42859;BME280;28505;56.970;40.998;2023-12-14T12:26:37;101159.41;;;-12.62;100.00
42859;BME280;28505;56.970;40.998;2023-12-14T12:32:00;101151.09;;;-12.67;100.00
42859;BME280;28505;56.970;40.998;2023-12-14T12:37:26;101155.25;;;-12.64;100.00
42859;BME280;28505;56.970;40.998;2023-12-14T12:42:53;101151.84;;;-12.65;100.00
42859;BME280;28505;56.970;40.998;2023-12-14T12:48:30;101137.53;;;-12.59;100.00
42859;BME280;28505;56.970;40.998;2023-12-14T12:54:01;101146.19;;;-12.59;100.00
42859;BME280;28505;56.970;40.998;2023-12-14T12:59:39;101124.09;;;-12.53;100.00
42859;BME280;28505;56.970;40.998;2023-12-14T13:05:06;101119.50;;;-12.50;100.00
42859;BME280;28505;56.970;40.998;2023-12-14T13:10:33;101123.63;;;-12.47;100.00
42859;BME280;28505;56.970;40.998;2023-12-14T13:15:56;101126.84;;;-12.43;100.00
42859;BME280;28505;56.970;40.998;2023-12-14T13:21:21;101129.56;;;-12.45;100.00
42859;BME280;28505;56.970;40.998;2023-12-14T13:26:45;101131.09;;;-12.42;100.00
42859;BME280;28505;56.970;40.998;2023-12-14T13:32:08;101129.78;;;-12.37;100.00
42859;BME280;28505;56.970;40.998;2023-12-14T13:37:31;101124.38;;;-12.34;100.00
42859;BME280;28505;56.970;40.998;2023-12-14T13:42:54;101126.28;;;-12.36;100.00
42859;BME280;28505;56.970;40.998;2023-12-14T13:48:27;101126.88;;;-12.32;100.00
42859;BME280;28505;56.970;40.998;2023-12-14T13:53:50;101110.56;;;-12.34;100.00
42859;BME280;28505;56.970;40.998;2023-12-14T13:59:13;101103.34;;;-12.31;100.00
42859;BME280;28505;56.970;40.998;2023-12-14T14:04:35;101101.56;;;-12.30;100.00
42859;BME280;28505;56.970;40.998;2023-12-14T14:09:57;101100.03;;;-12.33;100.00
42859;BME280;28505;56.970;40.998;2023-12-14T14:15:20;101118.47;;;-12.24;100.00
42859;BME280;28505;56.970;40.998;2023-12-14T14:20:43;101101.94;;;-12.23;100.00
42859;BME280;28505;56.970;40.998;2023-12-14T14:26:04;101118.09;;;-12.20;100.00
42859;BME280;28505;56.970;40.998;2023-12-14T14:31:28;101121.56;;;-12.19;100.00
42859;BME280;28505;56.970;40.998;2023-12-14T14:36:56;101126.13;;;-12.23;100.00
42859;BME280;28505;56.970;40.998;2023-12-14T14:42:19;101128.41;;;-12.18;100.00
42859;BME280;28505;56.970;40.998;2023-12-14T14:47:42;101111.41;;;-12.22;100.00
42859;BME280;28505;56.970;40.998;2023-12-14T14:53:07;101104.44;;;-12.22;100.00
42859;BME280;28505;56.970;40.998;2023-12-14T14:58:30;101109.50;;;-12.20;100.00
42859;BME280;28505;56.970;40.998;2023-12-14T15:03:52;101098.16;;;-12.19;100.00
42859;BME280;28505;56.970;40.998;2023-12-14T15:09:15;101095.31;;;-12.28;100.00
42859;BME280;28505;56.970;40.998;2023-12-14T15:14:37;101117.28;;;-12.20;100.00
42859;BME280;28505;56.970;40.998;2023-12-14T15:19:59;101126.50;;;-12.16;100.00
42859;BME280;28505;56.970;40.998;2023-12-14T15:25:25;101108.44;;;-12.18;100.00
42859;BME280;28505;56.970;40.998;2023-12-14T15:30:47;101124.53;;;-12.13;100.00
42859;BME280;28505;56.970;40.998;2023-12-14T15:36:12;101111.84;;;-12.17;100.00
42859;BME280;28505;56.970;40.998;2023-12-14T15:41:34;101110.22;;;-12.18;100.00
42859;BME280;28505;56.970;40.998;2023-12-14T15:46:56;101105.59;;;-12.15;100.00
42859;BME280;28505;56.970;40.998;2023-12-14T15:52:21;101098.63;;;-12.14;100.00
42859;BME280;28505;56.970;40.998;2023-12-14T15:57:43;101095.94;;;-12.13;100.00
42859;BME280;28505;56.970;40.998;2023-12-14T16:03:06;101088.38;;;-12.16;100.00
42859;BME280;28505;56.970;40.998;2023-12-14T16:08:30;101076.19;;;-12.15;100.00
42859;BME280;28505;56.970;40.998;2023-12-14T16:13:52;101075.72;;;-12.09;100.00
42859;BME280;28505;56.970;40.998;2023-12-14T16:19:14;101063.78;;;-12.12;100.00
42859;BME280;28505;56.970;40.998;2023-12-14T16:24:36;101065.31;;;-12.09;100.00
42859;BME280;28505;56.970;40.998;2023-12-14T16:29:58;101058.44;;;-12.10;100.00
42859;BME280;28505;56.970;40.998;2023-12-14T16:35:23;101058.44;;;-12.10;100.00
42859;BME280;28505;56.970;40.998;2023-12-14T16:40:45;101054.91;;;-12.09;100.00
42859;BME280;28505;56.970;40.998;2023-12-14T16:46:10;101059.66;;;-12.03;100.00
42859;BME280;28505;56.970;40.998;2023-12-14T16:51:32;101058.22;;;-12.07;100.00
42859;BME280;28505;56.970;40.998;2023-12-14T16:56:54;101021.59;;;-12.27;100.00
42859;BME280;28505;56.970;40.998;2023-12-14T17:02:16;101043.44;;;-12.07;100.00
42859;BME280;28505;56.970;40.998;2023-12-14T17:07:39;101041.69;;;-12.06;100.00
42859;BME280;28505;56.970;40.998;2023-12-14T17:13:01;101028.44;;;-12.14;100.00
42859;BME280;28505;56.970;40.998;2023-12-14T17:18:24;101025.38;;;-12.08;100.00
42859;BME280;28505;56.970;40.998;2023-12-14T17:23:46;101018.28;;;-12.06;100.00
42859;BME280;28505;56.970;40.998;2023-12-14T17:29:09;100990.28;;;-12.14;100.00
42859;BME280;28505;56.970;40.998;2023-12-14T17:34:32;100988.97;;;-12.08;100.00
42859;BME280;28505;56.970;40.998;2023-12-14T17:39:54;100980.22;;;-12.07;100.00
42859;BME280;28505;56.970;40.998;2023-12-14T17:45:16;100969.25;;;-12.11;100.00
42859;BME280;28505;56.970;40.998;2023-12-14T17:50:39;100962.97;;;-12.08;100.00
42859;BME280;28505;56.970;40.998;2023-12-14T17:56:01;100973.16;;;-12.05;100.00
42859;BME280;28505;56.970;40.998;2023-12-14T18:01:24;100960.84;;;-12.03;100.00
42859;BME280;28505;56.970;40.998;2023-12-14T18:06:46;100947.59;;;-12.00;100.00
42859;BME280;28505;56.970;40.998;2023-12-14T18:12:13;100956.91;;;-11.97;100.00
42859;BME280;28505;56.970;40.998;2023-12-14T18:17:36;100949.25;;;-11.99;100.00
42859;BME280;28505;56.970;40.998;2023-12-14T18:22:58;100951.38;;;-11.93;100.00
42859;BME280;28505;56.970;40.998;2023-12-14T18:28:20;100952.78;;;-11.89;100.00
42859;BME280;28505;56.970;40.998;2023-12-14T18:33:42;100945.69;;;-11.87;100.00
42859;BME280;28505;56.970;40.998;2023-12-14T18:39:08;100938.56;;;-11.85;100.00
42859;BME280;28505;56.970;40.998;2023-12-14T18:44:30;100904.06;;;-11.87;100.00
42859;BME280;28505;56.970;40.998;2023-12-14T18:49:52;100903.53;;;-11.81;100.00
42859;BME280;28505;56.970;40.998;2023-12-14T18:55:25;100854.53;;;-12.06;100.00
42859;BME280;28505;56.970;40.998;2023-12-14T19:00:47;100903.97;;;-11.75;100.00
42859;BME280;28505;56.970;40.998;2023-12-14T19:06:13;100933.97;;;-11.71;100.00
42859;BME280;28505;56.970;40.998;2023-12-14T19:11:36;100940.56;;;-11.67;100.00
42859;BME280;28505;56.970;40.998;2023-12-14T19:16:58;100937.28;;;-11.69;100.00
42859;BME280;28505;56.970;40.998;2023-12-14T19:22:21;100914.72;;;-11.69;100.00
42859;BME280;28505;56.970;40.998;2023-12-14T19:27:44;100892.94;;;-11.68;100.00
42859;BME280;28505;56.970;40.998;2023-12-14T19:33:14;100892.44;;;-11.62;100.00
42859;BME280;28505;56.970;40.998;2023-12-14T19:38:47;100885.09;;;-11.57;100.00
42859;BME280;28505;56.970;40.998;2023-12-14T19:44:14;100887.56;;;-11.55;100.00
42859;BME280;28505;56.970;40.998;2023-12-14T19:49:37;100872.75;;;-11.55;100.00
42859;BME280;28505;56.970;40.998;2023-12-14T19:55:00;100844.44;;;-11.48;100.00
42859;BME280;28505;56.970;40.998;2023-12-14T20:00:23;100847.25;;;-11.40;100.00
42859;BME280;28505;56.970;40.998;2023-12-14T20:05:45;100854.78;;;-11.37;100.00
42859;BME280;28505;56.970;40.998;2023-12-14T20:11:16;100817.41;;;-11.36;100.00
42859;BME280;28505;56.970;40.998;2023-12-14T20:16:38;100835.09;;;-11.29;100.00
42859;BME280;28505;56.970;40.998;2023-12-14T20:22:00;100810.19;;;-11.22;100.00
42859;BME280;28505;56.970;40.998;2023-12-14T20:27:23;100816.66;;;-11.17;100.00
42859;BME280;28505;56.970;40.998;2023-12-14T20:32:45;100814.88;;;-11.16;100.00
42859;BME280;28505;56.970;40.998;2023-12-14T20:38:08;100806.69;;;-11.12;100.00
42859;BME280;28505;56.970;40.998;2023-12-14T20:43:30;100818.34;;;-11.06;100.00
42859;BME280;28505;56.970;40.998;2023-12-14T20:48:53;100806.69;;;-11.02;100.00
42859;BME280;28505;56.970;40.998;2023-12-14T20:54:16;100803.16;;;-11.01;100.00
42859;BME280;28505;56.970;40.998;2023-12-14T20:59:38;100816.84;;;-10.99;100.00
42859;BME280;28505;56.970;40.998;2023-12-14T21:05:00;100787.56;;;-10.91;100.00
42859;BME280;28505;56.970;40.998;2023-12-14T21:10:23;100791.94;;;-10.92;100.00
42859;BME280;28505;56.970;40.998;2023-12-14T21:15:47;100775.09;;;-10.88;100.00
42859;BME280;28505;56.970;40.998;2023-12-14T21:21:10;100766.84;;;-10.83;100.00
42859;BME280;28505;56.970;40.998;2023-12-14T21:26:34;100759.47;;;-10.88;100.00
42859;BME280;28505;56.970;40.998;2023-12-14T21:32:08;100739.88;;;-10.82;100.00
42859;BME280;28505;56.970;40.998;2023-12-14T21:37:31;100727.66;;;-10.81;100.00
42859;BME280;28505;56.970;40.998;2023-12-14T21:42:54;100745.75;;;-10.80;100.00
42859;BME280;28505;56.970;40.998;2023-12-14T21:48:16;100724.38;;;-10.83;100.00
42859;BME280;28505;56.970;40.998;2023-12-14T21:53:38;100729.84;;;-10.87;100.00
42859;BME280;28505;56.970;40.998;2023-12-14T21:59:00;100711.06;;;-10.80;100.00
42859;BME280;28505;56.970;40.998;2023-12-14T22:04:22;100721.50;;;-10.80;100.00
42859;BME280;28505;56.970;40.998;2023-12-14T22:09:44;100696.81;;;-10.76;100.00
42859;BME280;28505;56.970;40.998;2023-12-14T22:15:07;100687.22;;;-10.76;100.00
42859;BME280;28505;56.970;40.998;2023-12-14T22:20:29;100704.34;;;-10.73;100.00
42859;BME280;28505;56.970;40.998;2023-12-14T22:25:52;100672.81;;;-10.70;100.00
42859;BME280;28505;56.970;40.998;2023-12-14T22:31:18;100662.94;;;-10.67;100.00
42859;BME280;28505;56.970;40.998;2023-12-14T22:36:40;100636.06;;;-10.67;100.00
42859;BME280;28505;56.970;40.998;2023-12-14T22:42:02;100633.19;;;-10.64;100.00
42859;BME280;28505;56.970;40.998;2023-12-14T22:47:24;100627.97;;;-10.64;100.00
42859;BME280;28505;56.970;40.998;2023-12-14T22:52:48;100620.59;;;-10.59;100.00
42859;BME280;28505;56.970;40.998;2023-12-14T22:58:11;100592.88;;;-10.60;100.00
42859;BME280;28505;56.970;40.998;2023-12-14T23:03:33;100582.16;;;-10.57;100.00
42859;BME280;28505;56.970;40.998;2023-12-14T23:08:55;100589.69;;;-10.54;100.00
42859;BME280;28505;56.970;40.998;2023-12-14T23:14:17;100571.19;;;-10.51;100.00
42859;BME280;28505;56.970;40.998;2023-12-14T23:19:39;100577.09;;;-10.49;100.00
42859;BME280;28505;56.970;40.998;2023-12-14T23:25:02;100557.06;;;-10.48;100.00
42859;BME280;28505;56.970;40.998;2023-12-14T23:30:24;100555.78;;;-10.44;100.00
42859;BME280;28505;56.970;40.998;2023-12-14T23:35:48;100540.97;;;-10.44;100.00
42859;BME280;28505;56.970;40.998;2023-12-14T23:41:11;100529.59;;;-10.43;100.00
42859;BME280;28505;56.970;40.998;2023-12-14T23:46:33;100527.00;;;-10.43;100.00
42859;BME280;28505;56.970;40.998;2023-12-14T23:51:56;100520.53;;;-10.39;100.00
42859;BME280;28505;56.970;40.998;2023-12-14T23:57:18;100513.53;;;-10.38;100.00
